createdAt,value
2023-01-30T00:00:40.827Z,27.27
2023-01-30T00:03:46.366Z,27.17
2023-01-30T00:06:51.761Z,28.13
2023-01-30T00:09:57.072Z,28.15
2023-01-30T00:13:03.041Z,28.13
2023-01-30T00:16:12.267Z,30.00
2023-01-30T00:19:18.198Z,28.02
2023-01-30T00:22:23.515Z,28.67
2023-01-30T00:25:29.781Z,28.77
2023-01-30T00:28:35.813Z,30.73
2023-01-30T00:31:42.756Z,28.75
2023-01-30T00:34:48.711Z,28.65
2023-01-30T00:37:59.573Z,28.10
2023-01-30T00:41:05.656Z,28.92
2023-01-30T00:44:29.879Z,30.73
2023-01-30T00:47:35.519Z,29.98
2023-01-30T00:50:44.053Z,29.05
2023-01-30T00:53:51.073Z,30.60
2023-01-30T00:56:56.297Z,30.88
2023-01-30T01:00:05.959Z,29.80
2023-01-30T01:03:11.648Z,30.83
2023-01-30T01:06:17.587Z,30.33
2023-01-30T01:09:24.517Z,31.95
2023-01-30T01:12:31.421Z,29.52
2023-01-30T01:15:38.494Z,30.13
2023-01-30T01:18:44.179Z,31.75
2023-01-30T01:21:49.803Z,32.70
2023-01-30T01:24:55.611Z,32.30
2023-01-30T01:28:01.248Z,30.63
2023-01-30T01:31:15.372Z,29.75
2023-01-30T01:34:20.820Z,30.45
2023-01-30T01:37:26.822Z,29.30
2023-01-30T01:40:51.215Z,29.92
2023-01-30T01:44:08.899Z,30.08
2023-01-30T01:47:14.406Z,28.33
2023-01-30T01:50:27.033Z,28.65
2023-01-30T01:53:39.992Z,31.05
2023-01-30T01:56:49.399Z,28.70
2023-01-30T02:00:12.692Z,29.58
2023-01-30T02:03:23.062Z,30.80
2023-01-30T02:06:30.511Z,31.98
2023-01-30T02:09:37.262Z,30.75
2023-01-30T02:12:44.049Z,32.28
2023-01-30T02:15:51.573Z,28.98
2023-01-30T02:18:56.934Z,31.80
2023-01-30T02:22:42.499Z,32.33
2023-01-30T02:26:00.051Z,29.88
2023-01-30T02:29:11.247Z,29.80
2023-01-30T02:32:34.658Z,30.63
2023-01-30T02:35:57.469Z,33.03
2023-01-30T02:39:24.024Z,30.55
2023-01-30T02:42:48.005Z,32.22
2023-01-30T02:46:25.818Z,29.05
2023-01-30T02:49:39.612Z,29.63
2023-01-30T02:52:48.049Z,29.30
2023-01-30T02:55:53.584Z,28.58
2023-01-30T02:59:07.285Z,28.05
2023-01-30T03:02:29.001Z,28.75
2023-01-30T03:05:48.265Z,28.52
2023-01-30T03:09:25.880Z,29.23
2023-01-30T03:13:09.677Z,29.73
2023-01-30T03:16:25.934Z,28.73
2023-01-30T03:19:33.308Z,27.23
2023-01-30T03:22:38.772Z,27.60
2023-01-30T03:25:46.516Z,27.35
2023-01-30T03:28:53.602Z,27.65
2023-01-30T03:31:59.237Z,28.83
2023-01-30T03:35:04.896Z,28.45
2023-01-30T03:38:12.087Z,28.58
2023-01-30T03:41:18.389Z,27.85
2023-01-30T03:44:24.047Z,28.70
2023-01-30T03:47:29.627Z,26.77
2023-01-30T03:50:35.118Z,29.35
2023-01-30T03:53:40.396Z,28.90
2023-01-30T03:56:46.027Z,27.48
2023-01-30T03:59:51.328Z,28.92
2023-01-30T04:02:59.443Z,26.00
2023-01-30T04:06:05.528Z,30.48
2023-01-30T04:09:11.266Z,29.45
2023-01-30T04:15:34.423Z,27.02
2023-01-30T04:18:58.526Z,28.20
2023-01-30T04:22:09.363Z,30.40
2023-01-30T04:25:15.273Z,28.17
2023-01-30T04:28:20.973Z,30.77
2023-01-30T04:31:26.445Z,29.83
2023-01-30T04:34:45.581Z,30.70
2023-01-30T04:37:51.363Z,28.38
2023-01-30T04:40:59.689Z,30.23
2023-01-30T04:44:08.094Z,29.17
2023-01-30T04:47:27.071Z,29.70
2023-01-30T04:50:33.074Z,32.60
2023-01-30T04:53:38.855Z,29.02
2023-01-30T04:56:44.385Z,28.20
2023-01-30T04:59:50.055Z,32.30
2023-01-30T05:02:58.244Z,31.58
2023-01-30T05:06:03.446Z,29.52
2023-01-30T05:09:09.003Z,30.05
2023-01-30T05:12:14.772Z,30.98
2023-01-30T05:15:20.776Z,30.90
2023-01-30T05:18:26.906Z,30.27
2023-01-30T05:21:32.483Z,31.80
2023-01-30T05:24:38.097Z,29.38
2023-01-30T05:27:43.576Z,30.63
2023-01-30T05:30:48.942Z,30.58
2023-01-30T05:33:54.549Z,31.10
2023-01-30T05:37:00.265Z,29.77
2023-01-30T05:40:06.607Z,31.90
2023-01-30T05:43:12.194Z,32.85
2023-01-30T05:46:18.635Z,30.15
2023-01-30T05:49:24.280Z,30.20
2023-01-30T05:52:29.353Z,32.10
2023-01-30T05:55:34.651Z,31.50
2023-01-30T05:58:40.483Z,31.70
2023-01-30T06:01:45.773Z,30.83
2023-01-30T06:04:51.397Z,34.30
2023-01-30T06:07:57.135Z,32.95
2023-01-30T06:11:11.952Z,33.35
2023-01-30T06:14:17.076Z,33.28
2023-01-30T06:17:22.950Z,33.13
2023-01-30T06:20:28.352Z,32.67
2023-01-30T06:23:34.106Z,32.10
2023-01-30T06:26:39.739Z,33.35
2023-01-30T06:29:45.521Z,32.08
2023-01-30T06:32:51.974Z,33.08
2023-01-30T06:35:57.144Z,33.92
2023-01-30T06:39:03.269Z,33.20
2023-01-30T06:42:08.754Z,32.90
2023-01-30T06:45:19.017Z,33.03
2023-01-30T06:48:24.960Z,33.15
2023-01-30T06:51:30.909Z,31.95
2023-01-30T06:54:36.403Z,32.85
2023-01-30T06:57:42.555Z,34.28
2023-01-30T07:00:48.151Z,33.67
2023-01-30T07:03:54.165Z,33.83
2023-01-30T07:06:59.735Z,33.17
2023-01-30T07:10:09.103Z,35.40
2023-01-30T07:13:15.235Z,33.80
2023-01-30T07:16:21.444Z,34.72
2023-01-30T07:19:27.062Z,33.47
2023-01-30T07:22:32.492Z,35.90
2023-01-30T07:25:37.754Z,33.60
2023-01-30T07:28:43.533Z,35.85
2023-01-30T07:31:49.112Z,33.45
2023-01-30T07:34:54.988Z,36.13
2023-01-30T07:38:00.948Z,36.38
2023-01-30T07:41:06.648Z,36.38
2023-01-30T07:44:13.295Z,38.08
2023-01-30T07:47:20.404Z,37.03
2023-01-30T07:50:25.964Z,35.05
2023-01-30T07:53:31.496Z,35.13
2023-01-30T07:56:37.091Z,35.55
2023-01-30T07:59:43.198Z,35.75
2023-01-30T08:02:49.023Z,33.97
2023-01-30T08:05:54.576Z,33.90
2023-01-30T08:09:00.252Z,34.58
2023-01-30T08:12:06.171Z,33.28
2023-01-30T08:15:11.685Z,34.97
2023-01-30T08:18:17.162Z,34.55
2023-01-30T08:21:22.596Z,36.60
2023-01-30T08:24:28.104Z,35.10
2023-01-30T08:27:33.417Z,33.63
2023-01-30T08:30:38.916Z,35.63
2023-01-30T08:33:44.932Z,33.92
2023-01-30T08:36:51.235Z,35.60
2023-01-30T08:39:57.311Z,36.05
2023-01-30T08:43:03.136Z,34.10
2023-01-30T08:46:09.118Z,36.67
2023-01-30T08:49:15.132Z,35.55
2023-01-30T08:52:21.204Z,36.75
2023-01-30T08:55:27.208Z,37.10
2023-01-30T08:58:32.843Z,37.75
2023-01-30T09:01:38.757Z,37.53
2023-01-30T09:04:44.376Z,40.13
2023-01-30T09:07:50.896Z,39.17
2023-01-30T09:11:04.994Z,40.60
2023-01-30T09:14:10.415Z,38.10
2023-01-30T09:17:16.109Z,39.22
2023-01-30T09:20:22.153Z,38.85
2023-01-30T09:23:28.022Z,40.83
2023-01-30T09:26:33.437Z,39.53
2023-01-30T09:29:38.672Z,38.92
2023-01-30T09:32:44.151Z,38.78
2023-01-30T09:35:50.986Z,41.47
2023-01-30T09:38:56.639Z,36.42
2023-01-30T09:42:13.641Z,37.80
2023-01-30T09:45:44.049Z,39.70
2023-01-30T09:49:14.211Z,40.25
2023-01-30T09:52:25.550Z,38.15
2023-01-30T09:55:34.355Z,38.33
2023-01-30T09:58:55.054Z,38.67
2023-01-30T10:02:44.773Z,38.80
2023-01-30T10:06:01.150Z,37.08
2023-01-30T10:09:14.447Z,36.45
2023-01-30T10:12:39.251Z,37.78
2023-01-30T10:16:18.967Z,35.08
2023-01-30T10:19:45.748Z,36.20
2023-01-30T10:23:03.272Z,33.90
2023-01-30T10:26:14.742Z,34.88
2023-01-30T10:29:39.124Z,32.87
2023-01-30T10:32:56.108Z,35.20
2023-01-30T10:36:12.856Z,32.78
2023-01-30T10:39:54.915Z,33.85
2023-01-30T10:43:16.569Z,33.40
2023-01-30T10:47:04.490Z,32.40
2023-01-30T10:50:29.771Z,32.53
2023-01-30T10:54:04.204Z,32.67
2023-01-30T10:57:25.439Z,32.65
2023-01-30T11:00:40.086Z,32.65
2023-01-30T11:03:53.006Z,31.83
2023-01-30T11:07:01.593Z,35.00
2023-01-30T11:10:21.590Z,31.17
2023-01-30T11:13:32.681Z,33.08
2023-01-30T11:16:57.188Z,33.35
2023-01-30T11:20:19.373Z,34.42
2023-01-30T11:23:32.122Z,33.42
2023-01-30T11:26:46.758Z,32.10
2023-01-30T11:30:23.304Z,31.90
2023-01-30T11:33:38.510Z,33.85
2023-01-30T11:36:43.963Z,32.97
2023-01-30T11:39:53.490Z,32.15
2023-01-30T11:43:04.343Z,33.35
2023-01-30T11:46:14.468Z,33.10
2023-01-30T11:49:46.121Z,32.10
2023-01-30T11:52:49.440Z,31.88
2023-01-30T11:56:05.169Z,36.33
2023-01-30T11:59:11.173Z,33.03
2023-01-30T12:02:26.593Z,33.20
2023-01-30T12:05:34.841Z,33.55
2023-01-30T12:08:43.157Z,33.85
2023-01-30T12:11:48.458Z,32.78
2023-01-30T12:15:00.661Z,31.30
2023-01-30T12:21:36.323Z,31.55
2023-01-30T12:24:53.312Z,31.67
2023-01-30T12:28:10.425Z,30.77
2023-01-30T12:31:43.933Z,30.38
2023-01-30T12:34:51.243Z,29.73
2023-01-30T12:38:28.967Z,30.88
2023-01-30T12:42:16.363Z,28.35
2023-01-30T12:45:26.039Z,30.33
2023-01-30T12:49:07.802Z,29.80
2023-01-30T12:52:42.282Z,29.23
2023-01-30T12:56:10.725Z,30.25
2023-01-30T12:59:30.997Z,28.65
2023-01-30T13:02:57.886Z,27.30
2023-01-30T13:06:32.327Z,31.23
2023-01-30T13:09:40.627Z,28.48
2023-01-30T13:12:51.439Z,29.15
2023-01-30T13:16:33.109Z,27.58
2023-01-30T13:19:52.967Z,26.80
2023-01-30T13:23:36.445Z,28.35
2023-01-30T13:26:43.655Z,27.85
2023-01-30T13:29:50.379Z,29.35
2023-01-30T13:33:01.297Z,27.52
2023-01-30T13:36:35.809Z,28.45
2023-01-30T13:40:05.387Z,29.33
2023-01-30T13:43:42.490Z,29.20
2023-01-30T13:46:52.272Z,30.33
2023-01-30T13:50:21.256Z,29.27
2023-01-30T13:53:40.123Z,27.95
2023-01-30T13:56:53.812Z,28.98
2023-01-30T14:00:21.133Z,29.73
2023-01-30T14:03:33.471Z,29.10
2023-01-30T14:06:39.515Z,28.73
2023-01-30T14:10:03.358Z,27.70
2023-01-30T14:13:12.692Z,25.85
2023-01-30T14:16:20.312Z,29.25
2023-01-30T14:19:40.321Z,27.20
2023-01-30T14:23:01.033Z,27.30
2023-01-30T14:26:06.279Z,27.58
2023-01-30T14:29:11.933Z,27.98
2023-01-30T14:32:20.387Z,27.77
2023-01-30T14:35:31.623Z,27.83
2023-01-30T14:38:39.032Z,27.42
2023-01-30T14:41:44.156Z,27.25
2023-01-30T14:45:15.216Z,27.17
2023-01-30T14:48:44.929Z,25.02
2023-01-30T14:51:50.402Z,26.50
2023-01-30T14:54:55.734Z,25.88
2023-01-30T14:58:05.367Z,24.08
2023-01-30T15:01:11.842Z,26.00
2023-01-30T15:04:20.008Z,25.92
2023-01-30T15:07:52.138Z,27.80
2023-01-30T15:11:12.192Z,25.02
2023-01-30T15:14:34.566Z,25.05
2023-01-30T15:18:09.004Z,26.65
2023-01-30T15:21:41.156Z,25.65
2023-01-30T15:24:55.400Z,27.08
2023-01-30T15:28:21.222Z,27.05
2023-01-30T15:31:27.029Z,25.42
2023-01-30T15:34:35.916Z,25.98
2023-01-30T15:37:51.809Z,26.67
2023-01-30T15:41:10.276Z,26.33
2023-01-30T15:44:36.795Z,24.65
2023-01-30T15:47:47.790Z,25.38
2023-01-30T15:50:57.325Z,25.37
2023-01-30T15:54:09.099Z,25.02
2023-01-30T15:57:25.072Z,26.60
2023-01-30T16:00:34.290Z,25.17
2023-01-30T16:03:43.009Z,24.95
2023-01-30T16:06:48.328Z,26.73
2023-01-30T16:10:12.911Z,26.45
2023-01-30T16:13:21.079Z,24.13
2023-01-30T16:16:28.314Z,25.67
2023-01-30T16:19:37.604Z,27.88
2023-01-30T16:22:47.901Z,24.73
2023-01-30T16:25:55.213Z,26.00
2023-01-30T16:29:05.269Z,28.63
2023-01-30T16:32:17.640Z,25.70
2023-01-30T16:35:28.950Z,26.48
2023-01-30T16:38:36.852Z,25.98
2023-01-30T16:41:43.775Z,30.38
2023-01-30T16:44:49.225Z,29.58
2023-01-30T16:47:54.575Z,27.52
2023-01-30T16:51:02.519Z,28.00
2023-01-30T16:54:23.352Z,24.17
2023-01-30T16:57:40.639Z,26.02
2023-01-30T17:00:51.531Z,25.92
2023-01-30T17:04:02.377Z,26.75
2023-01-30T17:07:08.148Z,26.50
2023-01-30T17:10:28.810Z,25.73
2023-01-30T17:13:38.072Z,28.80
2023-01-30T17:16:46.421Z,30.20
2023-01-30T17:19:51.679Z,28.58
2023-01-30T17:23:01.508Z,28.38
2023-01-30T17:26:06.924Z,30.77
2023-01-30T17:29:23.877Z,30.27
2023-01-30T17:32:39.675Z,28.08
2023-01-30T17:35:45.639Z,29.95
2023-01-30T17:38:53.843Z,28.90
2023-01-30T17:41:59.014Z,28.85
2023-01-30T17:45:04.786Z,28.23
2023-01-30T17:48:13.287Z,30.40
2023-01-30T17:51:18.724Z,29.00
2023-01-30T17:54:25.653Z,31.77
2023-01-30T17:57:31.434Z,30.73
2023-01-30T18:00:37.045Z,30.35
2023-01-30T18:03:43.957Z,29.75
2023-01-30T18:06:56.233Z,28.40
2023-01-30T18:10:01.930Z,29.47
2023-01-30T18:13:07.524Z,29.23
2023-01-30T18:16:31.343Z,29.42
2023-01-30T18:19:37.067Z,32.63
2023-01-30T18:22:43.327Z,30.88
2023-01-30T18:25:48.759Z,34.85
2023-01-30T18:28:54.581Z,36.22
2023-01-30T18:32:05.265Z,37.92
2023-01-30T18:35:11.047Z,36.60
2023-01-30T18:38:16.569Z,40.35
2023-01-30T18:41:24.352Z,41.55
2023-01-30T18:44:29.546Z,38.40
2023-01-30T18:47:34.497Z,40.65
2023-01-30T18:50:39.902Z,38.88
2023-01-30T18:53:47.864Z,41.53
2023-01-30T18:56:53.248Z,45.92
2023-01-30T18:59:58.643Z,39.72
2023-01-30T19:03:04.084Z,52.28
2023-01-30T19:06:11.879Z,50.67
2023-01-30T19:09:19.257Z,42.33
2023-01-30T19:12:42.939Z,38.15
2023-01-30T19:15:48.512Z,39.42
2023-01-30T19:18:55.794Z,38.03
2023-01-30T19:22:01.123Z,39.92
2023-01-30T19:25:07.664Z,36.78
2023-01-30T19:28:13.191Z,37.80
2023-01-30T19:31:21.148Z,34.10
2023-01-30T19:34:26.764Z,36.00
2023-01-30T19:37:31.976Z,35.28
2023-01-30T19:40:45.045Z,33.15
2023-01-30T19:43:51.860Z,34.10
2023-01-30T19:46:57.156Z,35.95
2023-01-30T19:50:03.007Z,34.15
2023-01-30T19:53:08.531Z,40.85
2023-01-30T19:56:15.168Z,40.15
2023-01-30T19:59:20.453Z,36.42
2023-01-30T20:02:25.990Z,35.42
2023-01-30T20:05:32.032Z,35.45
2023-01-30T20:08:38.086Z,34.92
2023-01-30T20:11:43.790Z,35.20
2023-01-30T20:14:49.173Z,38.05
2023-01-30T20:17:55.042Z,34.75
2023-01-30T20:21:11.989Z,39.80
2023-01-30T20:24:17.192Z,41.33
2023-01-30T20:27:22.524Z,37.63
2023-01-30T20:30:27.646Z,35.28
2023-01-30T20:33:33.040Z,35.00
2023-01-30T20:36:38.771Z,34.78
2023-01-30T20:39:44.654Z,33.33
2023-01-30T20:42:50.393Z,34.47
2023-01-30T20:46:13.873Z,35.00
2023-01-30T20:49:22.183Z,34.15
2023-01-30T20:52:29.854Z,32.20
2023-01-30T20:55:35.091Z,32.70
2023-01-30T20:58:40.507Z,33.85
2023-01-30T21:01:46.693Z,32.25
2023-01-30T21:04:52.262Z,32.75
2023-01-30T21:07:57.725Z,32.95
2023-01-30T21:11:08.951Z,34.58
2023-01-30T21:14:16.677Z,33.53
2023-01-30T21:17:22.292Z,32.80
2023-01-30T21:20:27.544Z,35.17
2023-01-30T21:23:33.922Z,32.55
2023-01-30T21:26:41.386Z,33.97
2023-01-30T21:29:46.811Z,32.97
2023-01-30T21:32:52.670Z,33.47
2023-01-30T21:36:02.903Z,31.70
2023-01-30T21:39:32.067Z,34.50
2023-01-30T21:42:55.927Z,34.55
2023-01-30T21:46:01.832Z,33.92
2023-01-30T21:49:07.695Z,32.15
2023-01-30T21:52:13.097Z,35.50
2023-01-30T21:55:18.603Z,32.58
2023-01-30T21:58:24.232Z,34.08
2023-01-30T22:01:30.195Z,33.55
2023-01-30T22:04:36.619Z,33.53
2023-01-30T22:07:42.085Z,36.63
2023-01-30T22:10:47.720Z,33.47
2023-01-30T22:13:53.949Z,34.05
2023-01-30T22:16:59.922Z,34.45
2023-01-30T22:20:05.870Z,34.00
2023-01-30T22:23:11.164Z,36.22
2023-01-30T22:26:19.369Z,34.45
2023-01-30T22:29:24.802Z,32.38
2023-01-30T22:32:30.323Z,33.88
2023-01-30T22:35:36.108Z,35.60
2023-01-30T22:38:46.534Z,35.03
2023-01-30T22:41:52.216Z,35.13
2023-01-30T22:44:57.940Z,34.60
2023-01-30T22:48:04.083Z,32.95
2023-01-30T22:51:18.488Z,34.47
2023-01-30T22:54:24.983Z,35.92
2023-01-30T22:57:30.520Z,35.10
2023-01-30T23:00:36.871Z,37.20
2023-01-30T23:03:44.499Z,35.17
2023-01-30T23:06:52.147Z,36.83
2023-01-30T23:09:57.865Z,37.70
2023-01-30T23:13:06.720Z,35.42
2023-01-30T23:16:13.992Z,36.17
2023-01-30T23:19:20.772Z,34.53
2023-01-30T23:22:26.822Z,35.25
2023-01-30T23:25:32.921Z,33.38
2023-01-30T23:28:40.284Z,35.60
2023-01-30T23:31:47.145Z,36.40
2023-01-30T23:34:52.313Z,33.58
2023-01-30T23:38:16.256Z,34.03
2023-01-30T23:41:24.238Z,36.05
2023-01-30T23:44:30.051Z,34.00
2023-01-30T23:47:35.649Z,34.72
2023-01-30T23:50:42.640Z,34.10
2023-01-30T23:53:49.612Z,36.22
2023-01-30T23:56:55.583Z,36.05
